Terminal Aerodrome Forecast
Issued by NWS Bismarck, ND

Home | Current Version | Previous Version | Text Only | Print | Product List | Glossary On
Versions: 1 2 3 4 5 6 7 8 9 10 11 12 13 14 15 16 17 18 19 20
000
FTUS43 KBIS 280029 AAB
TAFBIS
TAF AMD
KBIS 280029Z 2800/2824 17013G21KT P6SM SCT060 BKN200
     FM280200 17011KT P6SM VCTS SCT050CB BKN200
      TEMPO 2802/2804 28015G25KT 3SM TSRA BKN040CB
     FM280500 31010KT P6SM BKN150
     FM281200 32011G22KT P6SM FEW025 SCT200=

USA.gov is the U.S. government's official web portal to all federal, state and local government web resources and services.